Bandarabbass, Iran
Current Conditions -  °F | °C
As of 8:00 PM on Thursday 27 Nov 2014 (Local Time) from OIKB Reporting Station
Clear Clear  
Wind Chill: 75°   Ceiling: Unl
Heat Index: 75°   Visibility: 5mi
Dew Point: 64°   Wind: 5mph
Humidity: 69%   Direction: 230°SW
Pressure: 29.91"   Gusts: NA
Location:  27.22°N, 56.37°E
Report Text: OIKB 271700Z 23004KT 8000 SKC 24/18 Q1013 A2991
Loading
Personal Weather Stations






























Interactive Weather Map New forecast layout! Learn more

10-Day Weather Forecast

Advertisements
Track Severe Weather on mobile